עמוד ראשי
METAR-TAF:

METAR-TAF

שדות תעופה :

NWS Office

Pohnpei, מיקרונזיה

קו רוחב: 06-58N, קו אורך: 158-13E, גובה: 39מטר

תצפית מזג אוויר נוכחית

הדו"ח נערך לפני 48דקות, בשעה 10:54 UTC
רוח רגועה
טמפרטורת 25 צלסיוס
לחות 100%
לחץ 1013 hPa
ראות: 16.1קילומטר
עננים בינוניים בגובה 1700רגל , קומולוס מיגדלי.
מעונן בגובה 12000רגל
ממטרי גשם קלים

METAR: PTTP 151054Z 00000KT 10SM -SHRA BKN017TCU OVC120 25/25 A2991 RMK TCU ALQDS SLP129 T02500247

זמן: 22:42 (11:42 UTC)


TAF: חסר

תצפיות ותחזיות מזג אוויר לגבי יותר מ- 4,000 שדות תעופה ברחבי העולם. דוחות METAR ו- TAF.

התחנות הזמינות מסומנות בנקודות צהובות ואדומות על גבי המפה.

העבר את העכבר לנקודה הצבעונית על מנת לראות את שם התחנה.

לאחר מכן, לחץ כדי לראות את תוכן ואת תחזיות מזג האוויר.

כדי לשנות את המפה: לחץ על הכפתורים הירוקים עם הפלוס השחור כדי להתקרב; על הכפתור הירוק עם המקף כדי להתרחק; או בחיצים הירוקים למפות סמוכות.


METAR-TAF: